Burdett, Kansas
Current Conditions -  °F | °C
As of 3:35 AM on Sunday 26 Oct 2014 (Local Time) from KGBD Reporting Station
Clear Clear  
Wind Chill: 64°   Ceiling: Unl
Heat Index: 64°   Visibility: 10mi
Dew Point: 52°   Wind: 13mph
Humidity: 64%   Direction: 190°S
Pressure: 29.86"   Gusts: NA
Location:  38.19°N, 99.53°W
Report Text: KGBD 260835Z AUTO 19011KT 10SM CLR 18/11 A2986 RMK AO1
Loading
Personal Weather Stations






























Interactive Weather Map
Tropical Storm Tracking
New forecast layout! Learn more

10-Day Weather Forecast

Advertisements
Track Severe Weather on mobile